Time;durP1;ratioP1;P1;durP2;ratioP2;P2;SDS_P1;SDS_P2;PMS_P1;PMS_P2;Temp;Humidity;BMP_temperature;BMP_pressure;BME280_temperature;BME280_humidity;BME280_pressure;Samples;Min_cycle;Max_cycle;Signal;HPM_P1;HPM_P2
2022/03/14 00:01:14;;;;;;;4.03;2.90;;;10.70;16.10;;;;;;6160539;23;20135;-90
2022/03/14 00:03:53;;;;;;;3.70;3.27;;;10.70;21.50;;;;;;6134910;23;20154;-87
2022/03/14 00:06:19;;;;;;;4.43;3.20;;;10.70;25.50;;;;;;6134429;23;20273;-89
2022/03/14 00:08:45;;;;;;;3.20;2.70;;;10.60;27.00;;;;;;6135650;23;20150;-87
2022/03/14 00:11:14;;;;;;;4.23;3.30;;;10.50;31.10;;;;;;6166776;23;20131;-87
2022/03/14 00:13:43;;;;;;;3.93;3.37;;;10.50;33.90;;;;;;6155292;23;20190;-86
2022/03/14 00:16:10;;;;;;;3.80;3.30;;;10.50;35.60;;;;;;6181930;23;20127;-89
2022/03/14 00:18:36;;;;;;;3.77;3.13;;;10.50;37.10;;;;;;6153601;23;20201;-91
2022/03/14 00:21:05;;;;;;;4.23;3.40;;;10.50;37.00;;;;;;6173058;23;20174;-87
2022/03/14 00:23:30;;;;;;;3.80;3.40;;;10.50;38.80;;;;;;6150191;23;20161;-87
2022/03/14 00:25:56;;;;;;;3.83;3.23;;;10.50;40.30;;;;;;6149429;23;20216;-87
2022/03/14 00:28:21;;;;;;;4.77;3.10;;;10.50;39.70;;;;;;6141828;23;20193;-86
2022/03/14 00:30:48;;;;;;;4.00;3.37;;;10.70;40.20;;;;;;6140219;23;20151;-86
2022/03/14 00:33:15;;;;;;;4.53;3.40;;;10.60;39.70;;;;;;6138190;23;20182;-86
2022/03/14 00:35:41;;;;;;;4.20;3.47;;;10.60;39.80;;;;;;6172685;23;20210;-85
2022/03/14 00:38:07;;;;;;;6.60;3.30;;;10.60;38.40;;;;;;6174448;23;20154;-88
2022/03/14 00:40:38;;;;;;;4.80;3.10;;;10.50;38.50;;;;;;6157442;23;20154;-87
2022/03/14 00:43:07;;;;;;;3.97;2.87;;;10.50;40.10;;;;;;6156523;23;20181;-87
2022/03/14 00:45:47;;;;;;;3.13;2.73;;;10.40;41.90;;;;;;6158229;23;20139;-86
2022/03/14 00:48:16;;;;;;;5.00;3.13;;;10.30;45.50;;;;;;6156684;23;20138;-87
2022/03/14 00:50:42;;;;;;;3.50;3.03;;;10.30;46.20;;;;;;6177834;23;20305;-87
2022/03/14 00:56:36;;;;;;;3.97;3.07;;;10.30;47.50;;;;;;6162364;23;20146;-87
2022/03/14 00:59:04;;;;;;;3.87;2.90;;;10.30;48.30;;;;;;6134708;23;20150;-87
2022/03/14 01:01:33;;;;;;;5.00;3.57;;;10.30;48.50;;;;;;6134179;23;20142;-87
2022/03/14 01:03:59;;;;;;;4.13;3.40;;;10.40;50.00;;;;;;6134973;23;20154;-87
2022/03/14 01:06:25;;;;;;;3.50;3.20;;;10.40;48.90;;;;;;6134048;23;20550;-87
2022/03/14 01:08:51;;;;;;;4.57;3.50;;;10.30;48.90;;;;;;6134126;23;20181;-87
2022/03/14 01:11:17;;;;;;;4.23;3.73;;;10.40;48.70;;;;;;6134108;23;20151;-87
2022/03/14 01:13:44;;;;;;;4.37;3.60;;;10.30;50.90;;;;;;6133173;23;20268;-87
2022/03/14 01:16:10;;;;;;;5.47;4.13;;;10.30;49.70;;;;;;6133525;23;20154;-86
2022/03/14 01:18:39;;;;;;;4.43;4.03;;;10.40;49.70;;;;;;6134474;23;20178;-87
2022/03/14 01:21:04;;;;;;;4.30;3.90;;;10.30;50.40;;;;;;6133901;23;20485;-88
2022/03/14 01:23:33;;;;;;;4.40;4.00;;;10.20;51.40;;;;;;6133135;23;20154;-87
2022/03/14 01:26:02;;;;;;;5.20;4.43;;;10.20;53.90;;;;;;6134704;23;20166;-87
2022/03/14 01:28:28;;;;;;;6.40;5.23;;;10.20;54.90;;;;;;6135350;23;20603;-87
2022/03/14 01:30:57;;;;;;;6.33;5.73;;;10.20;57.00;;;;;;6136623;23;20146;-88
2022/03/14 01:33:23;;;;;;;6.27;5.70;;;10.10;59.10;;;;;;6136713;23;20205;-86
2022/03/14 01:35:49;;;;;;;6.90;6.20;;;10.00;59.10;;;;;;6158205;23;20143;-88
2022/03/14 01:38:18;;;;;;;7.07;6.37;;;9.90;61.30;;;;;;6157966;23;20162;-87
2022/03/14 01:40:46;;;;;;;6.90;6.20;;;10.10;61.40;;;;;;6160012;23;20135;-87
2022/03/14 01:43:12;;;;;;;7.40;6.70;;;10.10;62.10;;;;;;6160163;23;20142;-90
2022/03/14 01:45:40;;;;;;;7.60;6.90;;;10.10;64.00;;;;;;6149591;23;20162;-88
2022/03/14 01:48:09;;;;;;;7.50;6.77;;;10.20;63.30;;;;;;6150610;23;20154;-89
2022/03/14 01:50:34;;;;;;;7.63;6.93;;;10.20;60.30;;;;;;6178476;23;20162;-87
2022/03/14 01:53:07;;;;;;;9.60;7.70;;;10.10;59.80;;;;;;6145304;23;20182;-87
2022/03/14 01:55:34;;;;;;;10.70;8.00;;;10.30;59.70;;;;;;6153756;23;20154;-86
2022/03/14 01:58:03;;;;;;;8.80;7.77;;;10.30;58.10;;;;;;6155818;23;20158;-86
2022/03/14 02:00:30;;;;;;;8.23;7.33;;;10.20;58.70;;;;;;6156602;23;20251;-87
2022/03/14 02:02:58;;;;;;;9.07;8.17;;;10.20;58.60;;;;;;6149946;23;20147;-88
2022/03/14 02:05:27;;;;;;;9.87;8.87;;;10.30;59.50;;;;;;6140510;23;20158;-88
2022/03/14 02:07:56;;;;;;;8.60;7.57;;;10.10;60.90;;;;;;6137450;23;20173;-87
2022/03/14 02:10:21;;;;;;;9.53;8.53;;;10.20;60.50;;;;;;6137768;23;20162;-86
2022/03/14 02:12:50;;;;;;;8.90;8.07;;;10.20;59.70;;;;;;6138105;23;20178;-86
2022/03/14 02:15:20;;;;;;;9.33;8.33;;;10.30;56.90;;;;;;6136454;23;20178;-87
2022/03/14 02:17:46;;;;;;;9.80;8.83;;;10.20;57.40;;;;;;6134881;23;20197;-87
2022/03/14 02:20:11;;;;;;;9.97;8.67;;;10.20;59.30;;;;;;6136942;23;20170;-90
2022/03/14 02:22:38;;;;;;;9.37;8.47;;;10.10;59.50;;;;;;6138192;23;20154;-88
2022/03/14 02:25:10;;;;;;;10.03;9.07;;;10.30;60.20;;;;;;6139046;23;20197;-88
2022/03/14 02:27:40;;;;;;;12.03;9.83;;;10.10;60.60;;;;;;6135672;23;20151;-88
2022/03/14 02:30:06;;;;;;;10.97;9.30;;;10.10;61.20;;;;;;6159026;23;20162;-87
2022/03/14 02:32:32;;;;;;;9.87;8.97;;;10.10;61.20;;;;;;6135528;23;20517;-86
2022/03/14 02:35:01;;;;;;;11.10;9.90;;;10.20;60.20;;;;;;6139802;23;20154;-87
2022/03/14 02:37:26;;;;;;;14.90;12.07;;;10.20;59.60;;;;;;6144189;23;20173;-87
2022/03/14 02:39:55;;;;;;;17.07;15.17;;;10.40;60.00;;;;;;6139737;23;20591;-86
2022/03/14 02:42:21;;;;;;;17.30;15.60;;;10.10;59.30;;;;;;6167262;23;20150;-87
2022/03/14 02:44:46;;;;;;;16.30;14.67;;;10.00;60.90;;;;;;6142209;23;20462;-88
2022/03/14 02:47:12;;;;;;;15.23;13.70;;;9.90;62.90;;;;;;6141370;23;20217;-86
2022/03/14 02:49:38;;;;;;;17.43;15.63;;;9.90;65.10;;;;;;6138932;23;20157;-87
2022/03/14 02:52:04;;;;;;;14.77;13.27;;;9.90;64.20;;;;;;6139653;23;20158;-88
2022/03/14 02:54:29;;;;;;;15.57;13.80;;;10.00;65.00;;;;;;6141760;23;20193;-86
2022/03/14 02:56:57;;;;;;;15.13;13.50;;;10.20;61.70;;;;;;6145399;23;20549;-85
2022/03/14 02:59:23;;;;;;;15.97;14.37;;;10.10;59.40;;;;;;6171028;23;20142;-83
2022/03/14 03:01:48;;;;;;;28.53;25.73;;;10.10;60.70;;;;;;6146055;23;20147;-86
2022/03/14 03:04:20;;;;;;;28.27;25.53;;;10.00;62.50;;;;;;6142270;23;20155;-86
2022/03/14 03:06:46;;;;;;;24.80;21.93;;;10.20;61.10;;;;;;6138855;23;20166;-86
2022/03/14 03:09:12;;;;;;;20.13;18.03;;;10.10;59.60;;;;;;6165103;23;20154;-86
2022/03/14 03:11:40;;;;;;;16.90;15.07;;;10.00;62.30;;;;;;6138119;23;20143;-88
2022/03/14 03:14:09;;;;;;;15.00;13.53;;;10.20;61.00;;;;;;6152731;23;20193;-85
2022/03/14 03:16:38;;;;;;;16.07;14.43;;;10.00;61.50;;;;;;6149077;23;20648;-87
2022/03/14 03:19:06;;;;;;;26.67;24.03;;;10.20;60.00;;;;;;6138292;23;20226;-87
2022/03/14 03:21:51;;;;;;;32.10;28.87;;;10.10;61.20;;;;;;6161719;23;20234;-87
2022/03/14 03:24:31;;;;;;;29.77;26.90;;;10.00;61.20;;;;;;6136395;23;20150;-86
2022/03/14 03:26:57;;;;;;;24.50;21.90;;;10.00;60.80;;;;;;6136252;23;20158;-87
2022/03/14 03:29:23;;;;;;;17.90;15.60;;;10.00;61.90;;;;;;6135224;23;20170;-87
2022/03/14 03:31:52;;;;;;;18.03;13.73;;;10.10;59.80;;;;;;6140816;23;20162;-87
2022/03/14 03:34:39;;;;;;;13.83;12.33;;;10.00;60.00;;;;;;6146311;23;20189;-86
2022/03/14 03:37:04;;;;;;;13.20;11.47;;;10.00;59.00;;;;;;6153469;23;20150;-86
2022/03/14 03:39:32;;;;;;;12.50;11.17;;;9.90;60.70;;;;;;6158957;23;20162;-87
2022/03/14 03:42:04;;;;;;;16.40;11.83;;;9.80;62.50;;;;;;6182957;23;20166;-89
2022/03/14 03:44:32;;;;;;;12.50;11.17;;;9.80;63.20;;;;;;6149768;23;20543;-86
2022/03/14 03:47:04;;;;;;;13.70;11.40;;;9.90;63.00;;;;;;6144458;23;20138;-87
2022/03/14 03:49:32;;;;;;;13.50;11.37;;;10.00;61.80;;;;;;6165818;23;20154;-87
2022/03/14 03:52:05;;;;;;;14.93;11.60;;;10.00;59.30;;;;;;6165450;23;20146;-85
2022/03/14 03:54:31;;;;;;;14.57;12.23;;;10.00;60.90;;;;;;6165476;23;20190;-86
2022/03/14 03:56:57;;;;;;;13.57;11.20;;;10.00;61.60;;;;;;6140025;23;20154;-88
2022/03/14 03:59:23;;;;;;;13.50;10.93;;;10.00;61.70;;;;;;6137500;23;20295;-87
2022/03/14 04:01:49;;;;;;;15.43;11.73;;;9.90;61.90;;;;;;6159443;23;20158;-88
2022/03/14 04:04:15;;;;;;;13.10;11.37;;;9.90;62.70;;;;;;6161484;23;20138;-87
2022/03/14 04:06:42;;;;;;;12.40;11.07;;;10.00;61.20;;;;;;6134576;23;20253;-87
2022/03/14 04:09:10;;;;;;;15.10;11.13;;;10.10;59.00;;;;;;6158438;23;20182;-87
2022/03/14 04:11:41;;;;;;;12.63;11.33;;;10.00;57.50;;;;;;6134260;23;20245;-87
2022/03/14 04:14:10;;;;;;;16.07;10.70;;;10.10;58.50;;;;;;6135842;23;20524;-89
2022/03/14 04:16:40;;;;;;;15.20;10.83;;;10.30;59.30;;;;;;6137016;23;20158;-89
2022/03/14 04:19:06;;;;;;;12.93;11.53;;;10.30;59.00;;;;;;6138354;23;20158;-86
2022/03/14 04:21:34;;;;;;;13.40;10.73;;;10.00;58.90;;;;;;6164545;23;20157;-89
2022/03/14 04:24:03;;;;;;;13.77;10.47;;;10.00;60.90;;;;;;6138392;23;20174;-86
2022/03/14 04:26:30;;;;;;;11.77;10.57;;;9.90;61.20;;;;;;6138986;23;20674;-87
2022/03/14 04:28:58;;;;;;;15.47;10.57;;;9.90;61.90;;;;;;6138652;23;20158;-87
2022/03/14 04:31:26;;;;;;;14.27;10.60;;;10.00;60.20;;;;;;6161666;23;20460;-87
2022/03/14 04:33:54;;;;;;;13.90;10.47;;;10.10;58.70;;;;;;6135204;23;20189;-91
2022/03/14 04:36:23;;;;;;;12.77;10.23;;;10.10;57.90;;;;;;6135476;23;20181;-87
2022/03/14 04:38:53;;;;;;;12.53;10.43;;;10.10;57.50;;;;;;6139494;23;20162;-90
2022/03/14 04:41:20;;;;;;;15.20;10.70;;;10.10;56.30;;;;;;6144579;23;20658;-88
2022/03/14 04:43:47;;;;;;;12.33;9.53;;;10.00;56.90;;;;;;6178867;23;20154;-87
2022/03/14 04:46:16;;;;;;;11.53;9.47;;;9.90;57.70;;;;;;6142804;23;20182;-89
2022/03/14 04:48:42;;;;;;;12.10;10.73;;;10.00;58.30;;;;;;6136131;23;20159;-88
2022/03/14 04:51:11;;;;;;;14.10;9.47;;;10.00;55.90;;;;;;6136717;23;20665;-87
2022/03/14 04:53:38;;;;;;;11.97;10.10;;;10.00;57.30;;;;;;6136464;23;20221;-91
2022/03/14 04:56:04;;;;;;;16.63;10.60;;;10.00;57.70;;;;;;6162538;23;20138;-88
2022/03/14 04:58:30;;;;;;;14.20;10.43;;;10.00;55.30;;;;;;6136283;23;20158;-87
2022/03/14 05:00:56;;;;;;;10.67;9.53;;;10.10;56.00;;;;;;6136888;23;20153;-87
2022/03/14 05:03:21;;;;;;;16.23;11.13;;;10.10;54.30;;;;;;6139626;23;20582;-90
2022/03/14 05:05:47;;;;;;;12.27;9.63;;;10.20;56.40;;;;;;6144854;23;20158;-85
2022/03/14 05:08:12;;;;;;;15.80;10.23;;;10.10;56.30;;;;;;6149666;23;20170;-85
2022/03/14 05:11:00;;;;;;;13.30;9.70;;;10.10;55.00;;;;;;6153003;23;20157;-88
2022/03/14 05:13:28;;;;;;;12.60;9.73;;;10.10;55.10;;;;;;6152044;23;20193;-87
2022/03/14 05:15:53;;;;;;;13.17;10.00;;;10.00;55.50;;;;;;6147898;23;20158;-86
2022/03/14 05:18:20;;;;;;;15.00;9.80;;;9.90;56.80;;;;;;6142813;23;20177;-88
2022/03/14 05:20:52;;;;;;;12.67;10.50;;;9.90;57.50;;;;;;6144422;23;20241;-89
2022/03/14 05:23:20;;;;;;;13.57;10.47;;;10.00;56.30;;;;;;6145671;23;20214;-89
2022/03/14 05:25:49;;;;;;;14.23;11.10;;;10.00;55.30;;;;;;6138820;23;20147;-93
2022/03/14 05:28:16;;;;;;;12.37;10.13;;;10.00;57.30;;;;;;6140278;23;20161;-89
2022/03/14 05:30:43;;;;;;;12.80;10.07;;;9.90;58.50;;;;;;6142448;23;20549;-88
2022/03/14 05:33:30;;;;;;;13.20;10.57;;;9.90;59.70;;;;;;6159211;23;20214;-88
2022/03/14 05:35:56;;;;;;;12.40;9.97;;;9.90;58.70;;;;;;6158936;23;20199;-88
2022/03/14 05:38:22;;;;;;;12.77;10.33;;;9.90;58.30;;;;;;6159678;23;20234;-88
2022/03/14 05:40:55;;;;;;;15.57;9.87;;;9.90;59.00;;;;;;6184455;23;20181;-88
2022/03/14 05:43:37;;;;;;;14.33;9.60;;;9.90;59.10;;;;;;6176950;23;20150;-87
2022/03/14 05:46:06;;;;;;;14.70;10.50;;;9.90;59.30;;;;;;6150194;23;20155;-86
2022/03/14 05:48:35;;;;;;;12.30;9.93;;;10.00;58.60;;;;;;6161944;23;20155;-88
2022/03/14 05:51:39;;;;;;;11.83;9.83;;;10.00;58.40;;;;;;6174712;23;20147;-86
2022/03/14 05:54:05;;;;;;;13.07;10.00;;;9.80;59.90;;;;;;6141189;23;20272;-88
2022/03/14 05:57:11;;;;;;;15.77;9.90;;;9.80;60.60;;;;;;6164516;23;20150;-89
2022/03/14 05:59:41;;;;;;;12.27;9.60;;;9.90;61.30;;;;;;6141906;23;20188;-89
2022/03/14 06:02:09;;;;;;;13.73;10.80;;;9.90;62.80;;;;;;6140032;23;20234;-89
2022/03/14 06:04:34;;;;;;;13.23;10.70;;;10.10;59.90;;;;;;6148413;23;20217;-88
2022/03/14 06:07:00;;;;;;;17.40;10.83;;;9.90;60.00;;;;;;6150821;23;20166;-87
2022/03/14 06:09:28;;;;;;;15.73;10.97;;;9.90;60.50;;;;;;6143190;23;20163;-87
2022/03/14 06:11:54;;;;;;;13.83;10.03;;;10.00;60.20;;;;;;6138034;23;20151;-88
2022/03/14 06:14:23;;;;;;;16.73;10.27;;;10.10;57.70;;;;;;6137910;23;20249;-87
2022/03/14 06:16:52;;;;;;;11.07;9.67;;;9.90;57.60;;;;;;6139763;23;20631;-88
2022/03/14 06:19:23;;;;;;;12.27;10.33;;;10.00;60.00;;;;;;6150384;23;20145;-86
2022/03/14 06:21:52;;;;;;;13.83;9.43;;;10.00;59.80;;;;;;6151750;23;20173;-86
2022/03/14 06:24:20;;;;;;;13.03;9.97;;;10.00;58.10;;;;;;6148773;23;20202;-86
2022/03/14 06:26:48;;;;;;;15.13;10.03;;;10.00;57.40;;;;;;6142474;23;20221;-88
2022/03/14 06:29:18;;;;;;;15.90;10.60;;;9.90;59.70;;;;;;6143548;23;20530;-88
2022/03/14 06:32:23;;;;;;;13.97;10.03;;;9.90;58.50;;;;;;6144340;23;20234;-90
2022/03/14 06:34:53;;;;;;;12.37;9.37;;;9.90;58.30;;;;;;6151595;23;20170;-84
2022/03/14 06:37:23;;;;;;;12.53;9.63;;;9.80;59.80;;;;;;6171231;23;20233;-83
2022/03/14 06:39:54;;;;;;;17.43;10.10;;;9.90;59.80;;;;;;6147397;23;20146;-89
2022/03/14 06:45:43;;;;;;;13.90;8.87;;;9.90;59.10;;;;;;6164484;23;20226;-90
2022/03/14 06:48:09;;;;;;;12.47;9.50;;;9.90;58.40;;;;;;6140615;23;20158;-89
2022/03/14 06:50:41;;;;;;;14.73;9.20;;;9.90;56.20;;;;;;6138566;23;20250;-89
2022/03/14 06:53:08;;;;;;;14.43;8.60;;;9.90;57.10;;;;;;6140128;23;20186;-94
2022/03/14 06:55:35;;;;;;;14.13;8.47;;;9.80;56.30;;;;;;6144022;23;20586;-91
2022/03/14 06:58:02;;;;;;;12.80;8.53;;;9.90;58.40;;;;;;6144515;23;20641;-91
2022/03/14 07:00:30;;;;;;;11.40;8.10;;;10.00;55.10;;;;;;6178202;23;20169;-90
2022/03/14 07:02:57;;;;;;;13.63;8.77;;;10.00;53.20;;;;;;6134560;23;20150;-89
2022/03/14 07:05:26;;;;;;;12.47;7.23;;;9.90;53.80;;;;;;6183457;23;20146;-88
2022/03/14 07:07:52;;;;;;;11.90;7.87;;;9.70;55.20;;;;;;6157774;23;20181;-90
2022/03/14 07:10:30;;;;;;;14.83;8.63;;;9.90;53.90;;;;;;6147765;23;20206;-89
2022/03/14 07:12:59;;;;;;;11.40;8.10;;;9.90;54.20;;;;;;6144468;23;20209;-89
2022/03/14 07:15:29;;;;;;;13.70;8.13;;;9.80;54.00;;;;;;6140648;23;20540;-92
2022/03/14 07:18:06;;;;;;;11.10;7.53;;;9.80;54.20;;;;;;6142182;23;20179;-92
2022/03/14 07:20:31;;;;;;;11.03;7.63;;;9.90;55.20;;;;;;6139531;23;20158;-90
2022/03/14 07:23:05;;;;;;;9.83;7.47;;;10.00;55.80;;;;;;6144709;23;20250;-89
2022/03/14 07:25:38;;;;;;;13.10;7.43;;;10.10;53.50;;;;;;6147746;23;20154;-92
2022/03/14 07:28:14;;;;;;;15.53;8.13;;;10.10;49.40;;;;;;6150296;23;20171;-89
2022/03/14 07:30:52;;;;;;;16.43;7.57;;;10.10;50.70;;;;;;6146075;23;20149;-89
2022/03/14 07:33:18;;;;;;;17.60;7.20;;;10.20;48.10;;;;;;6166757;23;20177;-92
2022/03/14 07:35:44;;;;;;;9.50;6.33;;;10.40;46.20;;;;;;6140318;23;20150;-90
2022/03/14 07:38:13;;;;;;;16.53;8.00;;;10.30;46.00;;;;;;6140162;23;20661;-90
2022/03/14 07:40:39;;;;;;;12.67;7.20;;;10.30;45.00;;;;;;6142569;23;20158;-88
2022/03/14 07:43:07;;;;;;;14.13;7.43;;;10.20;47.70;;;;;;6143406;23;20151;-90
2022/03/14 07:45:44;;;;;;;11.00;7.63;;;10.10;50.00;;;;;;6144690;23;20155;-91
2022/03/14 07:48:23;;;;;;;11.67;7.53;;;10.00;53.10;;;;;;6150987;23;20193;-87
2022/03/14 07:50:55;;;;;;;13.03;7.77;;;10.10;50.00;;;;;;6146213;23;20162;-89
2022/03/14 07:53:28;;;;;;;15.03;6.73;;;10.20;49.20;;;;;;6144284;23;20194;-89
2022/03/14 07:56:11;;;;;;;11.50;7.00;;;10.20;46.10;;;;;;6172868;23;20143;-88
2022/03/14 07:58:41;;;;;;;12.47;6.50;;;10.20;44.90;;;;;;6168936;23;20184;-90
2022/03/14 08:01:08;;;;;;;13.63;7.47;;;10.20;44.90;;;;;;6169175;23;20166;-88
2022/03/14 08:04:00;;;;;;;12.70;6.97;;;10.20;44.50;;;;;;6171617;23;20174;-88
2022/03/14 08:06:42;;;;;;;13.00;7.20;;;10.20;44.20;;;;;;6148248;23;20170;-90
2022/03/14 08:09:22;;;;;;;14.00;6.40;;;10.30;41.30;;;;;;6154230;23;20181;-90
2022/03/14 08:12:09;;;;;;;11.63;6.63;;;10.20;41.00;;;;;;6140845;23;20210;-88
2022/03/14 08:14:38;;;;;;;17.17;6.90;;;10.20;41.00;;;;;;6149939;23;20193;-88
2022/03/14 08:17:38;;;;;;;15.77;6.67;;;10.30;40.20;;;;;;6154481;23;20180;-89
2022/03/14 08:20:28;;;;;;;12.23;6.37;;;10.30;38.00;;;;;;6176314;23;20146;-88
2022/03/14 08:23:10;;;;;;;14.63;6.03;;;10.30;34.30;;;;;;6142704;23;20162;-88
2022/03/14 08:25:53;;;;;;;11.90;5.43;;;10.40;34.10;;;;;;6142624;23;20155;-89
2022/03/14 08:28:27;;;;;;;10.77;5.27;;;10.50;30.30;;;;;;6167363;23;20161;-88
2022/03/14 08:30:53;;;;;;;11.77;5.10;;;10.50;27.60;;;;;;6140287;23;20143;-89
2022/03/14 08:33:21;;;;;;;11.23;5.33;;;10.50;25.10;;;;;;6135992;23;20190;-88
2022/03/14 08:35:49;;;;;;;10.30;5.57;;;10.50;24.80;;;;;;6137343;23;20233;-92
2022/03/14 08:38:15;;;;;;;12.13;6.07;;;10.80;24.90;;;;;;6137169;23;20178;-90
2022/03/14 08:40:43;;;;;;;13.47;4.97;;;10.50;22.60;;;;;;6143918;23;20159;-86
2022/03/14 08:43:10;;;;;;;11.90;5.33;;;10.50;20.60;;;;;;6147782;23;20158;-89
2022/03/14 08:45:43;;;;;;;10.03;4.73;;;10.50;18.60;;;;;;6150861;23;20154;-89
2022/03/14 08:48:11;;;;;;;13.53;5.07;;;10.50;19.90;;;;;;6144606;23;20150;-88
2022/03/14 08:50:44;;;;;;;10.60;4.90;;;10.60;21.00;;;;;;6148440;23;20199;-88
2022/03/14 08:53:12;;;;;;;13.70;4.87;;;10.70;16.10;;;;;;6120469;23;20174;-88
2022/03/14 08:55:40;;;;;;;11.07;4.90;;;10.80;9.40;;;;;;6148205;23;20197;-90
2022/03/14 08:58:09;;;;;;;11.77;4.60;;;10.70;7.70;;;;;;6150538;23;20142;-88
2022/03/14 09:03:58;;;;;;;14.17;4.73;;;10.60;10.80;;;;;;6183919;23;20133;-88
2022/03/14 09:06:28;;;;;;;9.70;4.70;;;10.50;16.50;;;;;;6108946;23;20166;-89
2022/03/14 09:09:37;;;;;;;13.67;4.73;;;10.60;17.40;;;;;;6178621;23;20161;-89
2022/03/14 09:12:05;;;;;;;16.33;5.17;;;10.70;11.70;;;;;;6145786;23;20193;-87
2022/03/14 09:14:56;;;;;;;14.07;4.30;;;10.70;6.80;;;;;;6182194;23;20200;-86
2022/03/14 09:17:26;;;;;;;11.83;4.63;;;10.90;4.20;;;;;;6156824;23;20182;-89
2022/03/14 09:23:26;;;;;;;13.03;4.33;;;10.80;4.00;;;;;;6179696;23;20215;-87
2022/03/14 09:25:55;;;;;;;14.63;4.30;;;10.80;3.00;;;;;;6153596;23;20239;-86
2022/03/14 09:28:25;;;;;;;19.17;5.57;;;11.10;2.80;;;;;;6153909;23;20143;-88
2022/03/14 09:30:55;;;;;;;16.80;4.80;;;11.10;1.00;;;;;;6147467;23;20166;-89
2022/03/14 09:33:21;;;;;;;14.77;4.30;;;10.90;1.00;;;;;;6148231;23;20174;-90
2022/03/14 09:36:03;;;;;;;12.37;4.03;;;11.00;3.10;;;;;;6147951;23;20182;-89
2022/03/14 09:38:39;;;;;;;13.70;4.73;;;11.00;1.00;;;;;;6183295;23;20151;-90
2022/03/14 09:41:28;;;;;;;9.20;4.27;;;11.10;1.00;;;;;;6155545;23;20206;-86
2022/03/14 09:47:17;;;;;;;12.03;4.47;;;11.10;1.00;;;;;;6177849;23;20161;-87
2022/03/14 09:50:09;;;;;;;13.73;4.60;;;11.10;1.00;;;;;;6153473;23;20210;-89
2022/03/14 09:53:08;;;;;;;17.97;5.33;;;11.10;1.00;;;;;;6155096;23;20138;-88
2022/03/14 09:59:03;;;;;;;11.87;4.73;;;11.00;1.00;;;;;;6182450;23;20141;-89
2022/03/14 10:02:00;;;;;;;10.43;4.53;;;11.00;1.00;;;;;;6155715;23;20230;-89
2022/03/14 10:05:06;;;;;;;16.00;5.47;;;11.00;1.00;;;;;;6144949;23;20185;-89
2022/03/14 10:07:38;;;;;;;13.63;4.50;;;11.00;1.00;;;;;;6121037;23;20506;-90
2022/03/14 10:10:20;;;;;;;11.60;4.53;;;11.00;1.00;;;;;;6148131;23;20155;-89
2022/03/14 10:12:59;;;;;;;13.70;4.90;;;11.10;1.00;;;;;;6153602;23;20194;-89
2022/03/14 10:15:27;;;;;;;20.53;8.80;;;11.20;1.00;;;;;;6156766;23;20178;-89
2022/03/14 10:17:57;;;;;;;15.20;5.53;;;11.20;1.00;;;;;;6156949;23;20166;-89
2022/03/14 10:20:31;;;;;;;12.73;4.63;;;11.40;1.00;;;;;;6154722;23;20167;-87
2022/03/14 10:23:01;;;;;;;10.87;5.33;;;11.30;1.00;;;;;;6154462;23;20177;-88
2022/03/14 10:25:29;;;;;;;11.90;5.10;;;11.30;1.00;;;;;;6132503;23;20213;-87
2022/03/14 10:28:02;;;;;;;15.87;6.37;;;11.10;1.00;;;;;;6127624;23;20189;-88
2022/03/14 10:30:30;;;;;;;13.90;5.23;;;11.00;1.00;;;;;;6148101;23;20579;-90
2022/03/14 10:33:16;;;;;;;14.07;5.67;;;11.10;1.00;;;;;;6148004;23;20224;-89
2022/03/14 10:35:47;;;;;;;13.43;5.60;;;11.20;1.00;;;;;;6146800;23;20169;-89
2022/03/14 10:38:50;;;;;;;12.93;5.10;;;11.10;1.00;;;;;;6177982;23;20138;-90
2022/03/14 10:41:24;;;;;;;14.03;5.40;;;11.20;1.00;;;;;;6176075;23;20146;-88
2022/03/14 10:44:27;;;;;;;13.57;5.33;;;11.40;1.00;;;;;;6148450;23;20142;-88
2022/03/14 10:46:52;;;;;;;14.50;5.77;;;11.50;1.00;;;;;;6151716;23;20261;-89
2022/03/14 10:49:41;;;;;;;13.03;6.03;;;11.50;1.00;;;;;;6152175;23;20667;-89
2022/03/14 10:52:20;;;;;;;18.13;6.07;;;11.40;1.00;;;;;;6148347;23;20147;-89
2022/03/14 10:58:30;;;;;;;15.10;5.03;;;11.60;1.00;;;;;;6182038;23;20158;-92
2022/03/14 11:01:14;;;;;;;10.77;5.60;;;11.70;1.00;;;;;;6182974;23;20142;-92
2022/03/14 11:03:59;;;;;;;12.50;5.53;;;11.80;1.00;;;;;;6134528;23;20146;-92
2022/03/14 11:09:52;;;;;;;13.03;5.07;;;11.90;1.00;;;;;;6184128;23;20215;-92
2022/03/14 11:12:39;;;;;;;14.33;5.47;;;11.80;1.00;;;;;;6157645;23;20253;-92
2022/03/14 11:15:12;;;;;;;18.97;5.53;;;11.60;1.00;;;;;;6177972;23;20225;-92
2022/03/14 11:17:41;;;;;;;12.63;5.30;;;11.60;1.00;;;;;;6141114;23;20159;-92
2022/03/14 11:20:09;;;;;;;13.20;5.60;;;11.60;1.00;;;;;;6141843;23;20150;-92
2022/03/14 11:22:57;;;;;;;10.80;6.07;;;11.50;1.00;;;;;;6144873;23;20150;-93
2022/03/14 11:28:50;;;;;;;12.07;5.60;;;11.70;1.00;;;;;;6169861;23;20150;-92
2022/03/14 11:31:58;;;;;;;15.07;5.63;;;11.70;1.00;;;;;;6143245;23;20146;-93
2022/03/14 11:35:13;;;;;;;16.20;5.70;;;11.80;1.00;;;;;;6142422;23;20185;-92
2022/03/14 11:41:06;;;;;;;12.13;5.23;;;12.30;1.00;;;;;;6168778;23;20161;-92
2022/03/14 11:43:33;;;;;;;13.40;6.53;;;12.50;1.00;;;;;;6167041;23;20692;-92
2022/03/14 11:46:06;;;;;;;12.20;6.13;;;12.50;1.00;;;;;;6151732;23;20178;-92
2022/03/14 11:52:34;;;;;;;11.70;5.60;;;12.90;99.90;;;;;;6172790;23;20150;-92
2022/03/14 11:55:42;;;;;;;;;;;;;;;;;;;;;
2022/03/14 11:58:38;;;;;;;14.10;6.10;;;13.60;99.90;;;;;;6178888;23;20150;-91
2022/03/14 12:01:33;;;;;;;16.53;6.00;;;13.60;99.90;;;;;;6158324;23;20168;-91
2022/03/14 12:07:29;;;;;;;9.30;4.93;;;13.40;99.90;;;;;;6183257;23;20190;-92
2022/03/14 12:10:46;;;;;;;14.63;5.60;;;13.20;1.00;;;;;;6158397;23;20166;-91
2022/03/14 12:13:12;;;;;;;10.83;5.93;;;13.10;99.90;;;;;;6141886;23;20178;-92
2022/03/14 12:16:29;;;;;;;14.43;6.00;;;13.20;1.00;;;;;;6139831;23;20181;-92
2022/03/14 12:19:49;;;;;;;11.93;5.53;;;13.30;1.00;;;;;;6139348;23;20160;-93
2022/03/14 12:22:37;;;;;;;9.27;5.53;;;13.40;99.90;;;;;;6165424;23;20140;-92
2022/03/14 12:25:52;;;;;;;11.60;5.50;;;13.50;1.00;;;;;;6166754;23;20123;-92
2022/03/14 12:28:44;;;;;;;9.17;5.73;;;13.30;99.90;;;;;;6143820;23;20159;-92
2022/03/14 12:31:28;;;;;;;12.27;5.50;;;13.20;99.90;;;;;;6147618;23;20166;-92
2022/03/14 12:40:47;;;;;;;9.80;4.73;;;13.10;99.90;;;;;;6175561;23;20137;-92
2022/03/14 12:43:25;;;;;;;9.97;4.40;;;13.40;1.00;;;;;;6164745;23;20143;-93
2022/03/14 12:49:05;;;;;;;11.80;3.77;;;14.00;99.90;;;;;;6175361;23;20146;-92
2022/03/14 12:51:40;;;;;;;7.83;5.00;;;14.00;99.90;;;;;;6177427;23;20146;-91
2022/03/14 12:54:07;;;;;;;10.70;4.13;;;13.70;99.90;;;;;;6155427;23;20231;-93
2022/03/14 12:56:43;;;;;;;8.87;3.90;;;13.50;99.90;;;;;;6156297;23;20154;-93
2022/03/14 12:59:13;;;;;;;8.23;3.17;;;13.60;99.90;;;;;;6169676;23;20165;-93
2022/03/14 13:02:00;;;;;;;11.37;3.70;;;13.60;1.00;;;;;;6142152;23;20151;-92
2022/03/14 13:04:28;;;;;;;10.17;3.20;;;13.70;99.90;;;;;;6156782;23;20209;-90
2022/03/14 13:10:16;;;;;;;6.50;2.93;;;14.20;99.90;;;;;;6167561;23;20158;-94
2022/03/14 13:13:24;;;;;;;6.77;3.10;;;14.40;99.90;;;;;;6142895;23;20172;-91
2022/03/14 13:16:09;;;;;;;8.33;3.07;;;14.70;99.90;;;;;;6142196;23;20686;-92
2022/03/14 13:18:53;;;;;;;9.70;3.07;;;15.00;1.00;;;;;;6153418;23;20159;-91
2022/03/14 13:21:38;;;;;;;6.77;2.60;;;15.00;1.00;;;;;;6114041;23;20180;-92
2022/03/14 13:27:27;;;;;;;10.63;3.27;;;15.00;1.00;;;;;;6167878;23;20156;-93
2022/03/14 13:29:58;;;;;;;8.97;3.20;;;15.00;1.00;;;;;;6140801;23;20167;-93
2022/03/14 13:32:36;;;;;;;4.60;2.17;;;15.10;99.90;;;;;;6116704;23;20161;-92
2022/03/14 13:38:34;;;;;;;6.50;2.80;;;15.00;99.90;;;;;;6167599;23;20229;-92
2022/03/14 13:41:15;;;;;;;6.57;2.53;;;15.00;99.90;;;;;;6165917;23;20172;-92
2022/03/14 13:43:43;;;;;;;6.07;2.60;;;15.00;99.90;;;;;;6140172;23;20484;-92
2022/03/14 13:49:43;;;;;;;7.43;3.07;;;15.20;99.90;;;;;;6175178;23;20213;-90
2022/03/14 13:52:59;;;;;;;6.13;2.63;;;15.20;99.90;;;;;;6158809;23;20165;-91
2022/03/14 13:56:16;;;;;;;31.30;17.30;;;15.60;96.60;;;;;;6173751;23;20186;-93
2022/03/14 14:02:14;;;;;;;5.07;1.90;;;15.00;75.90;;;;;;6165277;23;20229;-93
2022/03/14 14:05:10;;;;;;;5.97;2.83;;;14.90;1.00;;;;;;6145263;23;20181;-92
2022/03/14 14:08:19;;;;;;;10.23;2.67;;;15.10;13.40;;;;;;6144602;23;20180;-92
2022/03/14 14:14:26;;;;;;;5.30;1.77;;;15.70;1.00;;;;;;6183680;23;20241;-92
2022/03/14 14:16:52;;;;;;;10.03;2.83;;;15.90;1.00;;;;;;6151490;23;20158;-93
2022/03/14 14:19:22;;;;;;;7.60;2.70;;;16.00;1.00;;;;;;6145307;23;20155;-91
2022/03/14 14:22:44;;;;;;;8.13;2.63;;;16.10;1.00;;;;;;6139669;23;20186;-92
2022/03/14 14:28:33;;;;;;;8.97;2.30;;;16.10;1.00;;;;;;6163635;23;20150;-92
2022/03/14 14:31:20;;;;;;;3.90;2.00;;;15.70;1.00;;;;;;6141593;23;20247;-92